Time;durP1;ratioP1;P1;durP2;ratioP2;P2;SDS_P1;SDS_P2;PMS_P1;PMS_P2;Temp;Humidity;BMP_temperature;BMP_pressure;BME280_temperature;BME280_humidity;BME280_pressure;Samples;Min_cycle;Max_cycle;Signal;HPM_P1;HPM_P2
2023/03/04 00:02:05;;;;;;;;;;;8.30;58.80;;;;;;5052932;28;19909;-74
2023/03/04 00:04:30;;;;;;;;;;;8.30;58.90;;;;;;5053006;28;20020;-77
2023/03/04 00:06:56;;;;;;;;;;;8.30;58.90;;;;;;5052852;28;19927;-76
2023/03/04 00:09:21;;;;;;;;;;;8.30;58.90;;;;;;5052845;28;19913;-76
2023/03/04 00:11:47;;;;;;;;;;;8.30;58.90;;;;;;5052638;28;19928;-77
2023/03/04 00:14:13;;;;;;;;;;;8.30;58.90;;;;;;5052809;28;19959;-77
2023/03/04 00:16:38;;;;;;;;;;;8.30;58.90;;;;;;5052944;28;19909;-76
2023/03/04 00:19:04;;;;;;;;;;;8.30;58.90;;;;;;5052876;28;19909;-76
2023/03/04 00:21:30;;;;;;;;;;;8.30;58.90;;;;;;5064075;28;19919;-77
2023/03/04 00:23:55;;;;;;;;;;;8.30;58.90;;;;;;5073286;28;20278;-77
2023/03/04 00:26:21;;;;;;;;;;;8.30;58.90;;;;;;5072988;28;19991;-77
2023/03/04 00:28:46;;;;;;;;;;;8.30;58.90;;;;;;5072734;28;19912;-77
2023/03/04 00:31:12;;;;;;;;;;;8.30;58.90;;;;;;5072835;28;19913;-76
2023/03/04 00:33:39;;;;;;;;;;;8.30;58.90;;;;;;5072618;28;19917;-76
2023/03/04 00:36:04;;;;;;;;;;;8.20;59.40;;;;;;5071359;28;19959;-76
2023/03/04 00:38:30;;;;;;;;;;;8.20;58.90;;;;;;5072922;28;19951;-77
2023/03/04 00:40:55;;;;;;;;;;;8.20;58.90;;;;;;5072580;28;19908;-77
2023/03/04 00:43:21;;;;;;;;;;;8.30;58.90;;;;;;5072802;28;20377;-76
2023/03/04 00:45:47;;;;;;;;;;;8.20;58.90;;;;;;5072509;28;19913;-77
2023/03/04 00:48:13;;;;;;;;;;;8.20;58.90;;;;;;5072406;28;20389;-76
2023/03/04 00:50:38;;;;;;;;;;;8.20;58.90;;;;;;5072684;28;19915;-76
2023/03/04 00:53:04;;;;;;;;;;;8.20;58.90;;;;;;5072712;28;19921;-76
2023/03/04 00:55:30;;;;;;;;;;;8.20;58.90;;;;;;5075583;28;19912;-76
2023/03/04 00:57:55;;;;;;;;;;;8.20;58.90;;;;;;5076287;28;19912;-75
2023/03/04 01:00:21;;;;;;;;;;;8.20;58.90;;;;;;5076387;28;19909;-75
2023/03/04 01:02:46;;;;;;;;;;;8.20;58.90;;;;;;5076253;28;19913;-76
2023/03/04 01:05:12;;;;;;;;;;;8.20;58.90;;;;;;5076312;28;19908;-76
2023/03/04 01:07:38;;;;;;;;;;;8.20;58.90;;;;;;5076292;28;19938;-77
2023/03/04 01:10:05;;;;;;;;;;;8.20;59.00;;;;;;5076302;28;20369;-76
2023/03/04 01:12:30;;;;;;;;;;;8.20;58.90;;;;;;5075870;28;19994;-76
2023/03/04 01:14:56;;;;;;;;;;;8.20;58.90;;;;;;5076026;28;19948;-76
2023/03/04 01:17:21;;;;;;;;;;;8.20;59.00;;;;;;5076354;28;19960;-76
2023/03/04 01:19:47;;;;;;;;;;;8.20;58.90;;;;;;5075833;28;20011;-76
2023/03/04 01:22:14;;;;;;;;;;;8.20;59.00;;;;;;5076147;28;19958;-77
2023/03/04 01:24:39;;;;;;;;;;;8.20;59.00;;;;;;5075986;28;19909;-77
2023/03/04 01:27:05;;;;;;;;;;;8.20;59.00;;;;;;5074680;28;19953;-77
2023/03/04 01:29:30;;;;;;;;;;;8.20;59.00;;;;;;5075761;28;19915;-76
2023/03/04 01:31:56;;;;;;;;;;;8.10;58.90;;;;;;5075711;28;19931;-77
2023/03/04 01:34:21;;;;;;;;;;;8.20;59.00;;;;;;5075659;28;19915;-77
2023/03/04 01:36:47;;;;;;;;;;;8.10;58.90;;;;;;5077187;28;19912;-77
2023/03/04 01:39:12;;;;;;;;;;;8.20;59.00;;;;;;5075615;28;19950;-76
2023/03/04 01:41:38;;;;;;;;;;;8.10;59.00;;;;;;5075650;28;20000;-76
2023/03/04 01:44:04;;;;;;;;;;;8.10;59.00;;;;;;5075580;28;19908;-76
2023/03/04 01:46:30;;;;;;;;;;;8.10;59.00;;;;;;5075432;28;19913;-77
2023/03/04 01:48:56;;;;;;;;;;;8.10;59.00;;;;;;5075417;28;19914;-76
2023/03/04 01:51:22;;;;;;;;;;;8.10;59.00;;;;;;5075145;28;19923;-77
2023/03/04 01:53:53;;;;;;;;;;;8.10;59.00;;;;;;5075260;28;20441;-76
2023/03/04 01:56:24;;;;;;;;;;;8.10;59.00;;;;;;5075406;28;19920;-77
2023/03/04 01:59:13;;;;;;;;;;;8.10;59.00;;;;;;5075369;28;19920;-76
2023/03/04 02:01:39;;;;;;;;;;;8.10;59.00;;;;;;5073833;28;19909;-75
2023/03/04 02:04:05;;;;;;;;;;;8.10;59.00;;;;;;5075374;28;20342;-75
2023/03/04 02:06:30;;;;;;;;;;;8.10;59.10;;;;;;5074849;28;19913;-76
2023/03/04 02:08:56;;;;;;;;;;;8.10;59.10;;;;;;5075403;28;20350;-75
2023/03/04 02:11:22;;;;;;;;;;;8.10;59.10;;;;;;5074876;28;19925;-75
2023/03/04 02:13:47;;;;;;;;;;;8.10;59.10;;;;;;5075030;28;20338;-76
2023/03/04 02:16:13;;;;;;;;;;;8.10;59.10;;;;;;5074734;28;19908;-75
2023/03/04 02:18:39;;;;;;;;;;;8.00;59.00;;;;;;5074824;28;19908;-75
2023/03/04 02:21:16;;;;;;;;;;;8.00;59.00;;;;;;5074898;28;19909;-76
2023/03/04 02:23:57;;;;;;;;;;;8.00;59.00;;;;;;5074798;28;19908;-76
2023/03/04 02:26:23;;;;;;;;;;;8.00;59.10;;;;;;5073428;28;19909;-76
2023/03/04 02:28:50;;;;;;;;;;;8.00;59.10;;;;;;5074585;28;20008;-76
2023/03/04 02:31:31;;;;;;;;;;;8.00;59.10;;;;;;5074642;28;19913;-76
2023/03/04 02:33:57;;;;;;;;;;;8.00;59.10;;;;;;5074494;28;19916;-76
2023/03/04 02:36:23;;;;;;;;;;;8.00;59.10;;;;;;5074564;28;20375;-76
2023/03/04 02:38:50;;;;;;;;;;;8.00;59.70;;;;;;5074468;28;19908;-75
2023/03/04 02:41:17;;;;;;;;;;;8.00;59.10;;;;;;5074309;28;19914;-76
2023/03/04 02:43:44;;;;;;;;;;;8.00;59.10;;;;;;5074456;28;19915;-76
2023/03/04 02:46:11;;;;;;;;;;;8.00;59.10;;;;;;5074335;28;19916;-76
2023/03/04 02:48:37;;;;;;;;;;;8.00;59.10;;;;;;5074310;28;19920;-77
2023/03/04 02:51:02;;;;;;;;;;;8.00;59.10;;;;;;5074299;28;19912;-76
2023/03/04 02:53:28;;;;;;;;;;;8.00;59.10;;;;;;5074081;28;19912;-76
2023/03/04 02:55:53;;;;;;;;;;;8.00;59.10;;;;;;5073995;28;19927;-76
2023/03/04 02:58:19;;;;;;;;;;;8.00;59.10;;;;;;5074490;28;19916;-76
2023/03/04 03:00:44;;;;;;;;;;;8.00;59.10;;;;;;5074129;28;20007;-76
2023/03/04 03:03:10;;;;;;;;;;;8.00;59.10;;;;;;5072845;28;19959;-76
2023/03/04 03:05:36;;;;;;;;;;;8.00;59.10;;;;;;5073946;28;19909;-76
2023/03/04 03:08:01;;;;;;;;;;;8.00;59.10;;;;;;5073846;28;19954;-76
2023/03/04 03:10:27;;;;;;;;;;;8.00;59.20;;;;;;5073749;28;20352;-76
2023/03/04 03:12:52;;;;;;;;;;;7.90;59.10;;;;;;5073896;28;19925;-76
2023/03/04 03:15:18;;;;;;;;;;;8.00;59.10;;;;;;5073829;28;19908;-76
2023/03/04 03:17:44;;;;;;;;;;;8.00;59.20;;;;;;5073152;28;19912;-76
2023/03/04 03:20:10;;;;;;;;;;;7.90;59.20;;;;;;5073701;28;20400;-76
2023/03/04 03:22:36;;;;;;;;;;;7.90;59.10;;;;;;5073526;28;19908;-76
2023/03/04 03:25:02;;;;;;;;;;;8.00;59.10;;;;;;5073464;28;19953;-77
2023/03/04 03:27:27;;;;;;;;;;;8.00;59.20;;;;;;5073594;28;19912;-76
2023/03/04 03:29:53;;;;;;;;;;;8.00;59.20;;;;;;5072689;28;19939;-76
2023/03/04 03:32:18;;;;;;;;;;;7.90;59.10;;;;;;5073365;28;19971;-76
2023/03/04 03:34:44;;;;;;;;;;;7.90;59.10;;;;;;5073386;28;19909;-76
2023/03/04 03:37:09;;;;;;;;;;;7.90;59.10;;;;;;5073333;28;19908;-76
2023/03/04 03:39:35;;;;;;;;;;;7.90;59.10;;;;;;5073369;28;19995;-76
2023/03/04 03:42:00;;;;;;;;;;;7.90;59.10;;;;;;5073472;28;19923;-76
2023/03/04 03:44:26;;;;;;;;;;;7.90;59.10;;;;;;5073682;28;19999;-76
2023/03/04 03:46:51;;;;;;;;;;;7.90;59.10;;;;;;5073619;28;20011;-76
2023/03/04 03:49:17;;;;;;;;;;;7.90;59.10;;;;;;5073641;28;19913;-76
2023/03/04 03:51:43;;;;;;;;;;;7.90;59.10;;;;;;5073283;28;19967;-75
2023/03/04 03:54:09;;;;;;;;;;;7.90;59.20;;;;;;5072105;28;19912;-75
2023/03/04 03:56:34;;;;;;;;;;;7.90;59.10;;;;;;5074515;28;20004;-76
2023/03/04 03:59:00;;;;;;;;;;;7.90;59.20;;;;;;5073891;28;19916;-75
2023/03/04 04:01:25;;;;;;;;;;;7.90;59.20;;;;;;5073193;28;20243;-76
2023/03/04 04:03:51;;;;;;;;;;;7.90;59.20;;;;;;5073653;28;20255;-76
2023/03/04 04:06:16;;;;;;;;;;;7.90;59.20;;;;;;5072997;28;19912;-76
2023/03/04 04:08:42;;;;;;;;;;;7.90;59.20;;;;;;5072869;28;19931;-76
2023/03/04 04:11:09;;;;;;;;;;;7.90;59.20;;;;;;5072819;28;19928;-76
2023/03/04 04:13:34;;;;;;;;;;;7.90;59.20;;;;;;5073094;28;19917;-76
2023/03/04 04:16:00;;;;;;;;;;;7.90;59.20;;;;;;5073009;28;19916;-76
2023/03/04 04:18:25;;;;;;;;;;;7.80;59.20;;;;;;5072983;28;19908;-76
2023/03/04 04:20:51;;;;;;;;;;;7.90;59.20;;;;;;5072826;28;19908;-76
2023/03/04 04:23:17;;;;;;;;;;;7.90;59.20;;;;;;5072763;28;20124;-76
2023/03/04 04:25:42;;;;;;;;;;;7.80;59.20;;;;;;5072906;28;19916;-75
2023/03/04 04:28:08;;;;;;;;;;;7.90;59.20;;;;;;5073907;28;19913;-75
2023/03/04 04:30:33;;;;;;;;;;;7.80;59.20;;;;;;5076496;28;19935;-76
2023/03/04 04:33:00;;;;;;;;;;;7.80;59.20;;;;;;5075643;28;20447;-76
2023/03/04 04:35:26;;;;;;;;;;;7.80;59.20;;;;;;5076857;28;19908;-76
2023/03/04 04:37:52;;;;;;;;;;;7.80;59.20;;;;;;5076661;28;20320;-76
2023/03/04 04:40:18;;;;;;;;;;;7.80;59.20;;;;;;5076672;28;19909;-76
2023/03/04 04:42:43;;;;;;;;;;;7.90;59.20;;;;;;5076776;28;19940;-76
2023/03/04 04:45:09;;;;;;;;;;;7.80;59.20;;;;;;5076762;28;19912;-76
2023/03/04 04:47:35;;;;;;;;;;;7.80;59.20;;;;;;5076904;28;19931;-76
2023/03/04 04:50:01;;;;;;;;;;;7.90;59.20;;;;;;5076607;28;20208;-76
2023/03/04 04:52:26;;;;;;;;;;;7.90;59.20;;;;;;5076361;28;19916;-76
2023/03/04 04:54:52;;;;;;;;;;;7.90;59.20;;;;;;5076358;28;19916;-76
2023/03/04 04:57:17;;;;;;;;;;;7.90;59.20;;;;;;5076549;28;19912;-76
2023/03/04 04:59:43;;;;;;;;;;;7.90;59.20;;;;;;5075155;28;20282;-76
2023/03/04 05:02:08;;;;;;;;;;;7.90;59.10;;;;;;5059002;28;19913;-75
2023/03/04 05:04:34;;;;;;;;;;;7.90;59.10;;;;;;5056321;28;19909;-76
2023/03/04 05:06:59;;;;;;;;;;;8.00;59.20;;;;;;5056222;28;20042;-75
2023/03/04 05:09:25;;;;;;;;;;;8.00;59.10;;;;;;5056429;28;19909;-76
2023/03/04 05:11:51;;;;;;;;;;;8.00;59.10;;;;;;5055847;28;19931;-76
2023/03/04 05:14:16;;;;;;;;;;;8.00;59.10;;;;;;5055866;28;19992;-76
2023/03/04 05:16:42;;;;;;;;;;;8.00;59.00;;;;;;5055756;28;19912;-76
2023/03/04 05:19:07;;;;;;;;;;;8.10;59.10;;;;;;5055977;28;19959;-75
2023/03/04 05:21:33;;;;;;;;;;;8.10;59.00;;;;;;5055782;28;19920;-76
2023/03/04 05:23:58;;;;;;;;;;;8.10;59.00;;;;;;5056418;28;20339;-76
2023/03/04 05:26:24;;;;;;;;;;;8.10;58.90;;;;;;5056347;28;19944;-76
2023/03/04 05:28:49;;;;;;;;;;;8.20;59.00;;;;;;5055983;28;19945;-76
2023/03/04 05:31:16;;;;;;;;;;;8.10;58.90;;;;;;5055610;28;19999;-77
2023/03/04 05:33:42;;;;;;;;;;;8.20;58.90;;;;;;5056380;28;19968;-75
2023/03/04 05:36:07;;;;;;;;;;;8.20;58.90;;;;;;5056717;28;19912;-76
2023/03/04 05:38:33;;;;;;;;;;;8.20;58.90;;;;;;5056793;28;19932;-76
2023/03/04 05:41:00;;;;;;;;;;;8.20;58.80;;;;;;5056114;28;19918;-75
2023/03/04 05:43:27;;;;;;;;;;;8.20;58.80;;;;;;5056734;28;19916;-76
2023/03/04 05:45:52;;;;;;;;;;;8.30;58.80;;;;;;5055593;28;19908;-75
2023/03/04 05:48:18;;;;;;;;;;;8.30;58.80;;;;;;5056580;28;20393;-76
2023/03/04 05:50:43;;;;;;;;;;;8.30;58.80;;;;;;5055047;28;19909;-75
2023/03/04 05:53:09;;;;;;;;;;;8.30;58.70;;;;;;5055381;28;19917;-76
2023/03/04 05:55:34;;;;;;;;;;;8.40;58.70;;;;;;5056588;28;19941;-75
2023/03/04 05:58:00;;;;;;;;;;;8.40;58.60;;;;;;5056152;28;19908;-76
2023/03/04 06:00:25;;;;;;;;;;;8.40;58.60;;;;;;5056232;28;19908;-76
2023/03/04 06:02:51;;;;;;;;;;;8.40;58.50;;;;;;5056334;28;19956;-76
2023/03/04 06:05:17;;;;;;;;;;;8.40;58.50;;;;;;5055886;28;19931;-75
2023/03/04 06:07:42;;;;;;;;;;;8.50;58.50;;;;;;5056357;28;19909;-76
2023/03/04 06:10:08;;;;;;;;;;;8.50;58.50;;;;;;5056411;28;19915;-76
2023/03/04 06:12:34;;;;;;;;;;;8.50;58.50;;;;;;5055926;28;19933;-76
2023/03/04 06:15:01;;;;;;;;;;;8.50;58.40;;;;;;5056034;28;19916;-76
2023/03/04 06:17:27;;;;;;;;;;;8.50;58.40;;;;;;5055814;28;20383;-76
2023/03/04 06:19:53;;;;;;;;;;;8.60;58.40;;;;;;5055648;28;20003;-76
2023/03/04 06:22:18;;;;;;;;;;;8.60;58.50;;;;;;5056966;28;20390;-77
2023/03/04 06:24:44;;;;;;;;;;;8.60;58.40;;;;;;5054753;28;20359;-77
2023/03/04 06:27:10;;;;;;;;;;;8.60;58.40;;;;;;5055841;28;19944;-76
2023/03/04 06:29:35;;;;;;;;;;;8.70;58.40;;;;;;5055503;28;20012;-75
2023/03/04 06:32:01;;;;;;;;;;;8.80;58.40;;;;;;5055308;28;20012;-76
2023/03/04 06:34:28;;;;;;;;;;;8.80;58.40;;;;;;5055607;28;20327;-76
2023/03/04 06:36:54;;;;;;;;;;;8.80;58.30;;;;;;5055576;28;19974;-76
2023/03/04 06:39:19;;;;;;;;;;;8.90;58.30;;;;;;5055450;28;19913;-76
2023/03/04 06:41:45;;;;;;;;;;;8.90;58.20;;;;;;5055358;28;19908;-76
2023/03/04 06:44:10;;;;;;;;;;;8.90;58.10;;;;;;5055449;28;19908;-76
2023/03/04 06:46:36;;;;;;;;;;;8.90;58.00;;;;;;5055498;28;19909;-76
2023/03/04 06:49:02;;;;;;;;;;;9.00;58.10;;;;;;5055083;28;20368;-78
2023/03/04 06:51:27;;;;;;;;;;;9.00;58.00;;;;;;5054587;28;19909;-75
2023/03/04 06:53:53;;;;;;;;;;;9.00;58.00;;;;;;5055133;28;19921;-76
2023/03/04 06:56:18;;;;;;;;;;;9.00;58.00;;;;;;5055330;28;19996;-76
2023/03/04 06:58:44;;;;;;;;;;;9.00;58.00;;;;;;5054920;28;20378;-76
2023/03/04 07:01:10;;;;;;;;;;;9.00;58.00;;;;;;5054909;28;19916;-75
2023/03/04 07:03:36;;;;;;;;;;;9.00;58.00;;;;;;5054970;28;20422;-76
2023/03/04 07:06:02;;;;;;;;;;;9.00;57.90;;;;;;5054913;28;19986;-76
2023/03/04 07:08:27;;;;;;;;;;;9.10;58.00;;;;;;5054897;28;20373;-72
2023/03/04 07:10:53;;;;;;;;;;;9.10;57.90;;;;;;5053976;28;19954;-73
2023/03/04 07:13:18;;;;;;;;;;;9.10;57.90;;;;;;5072145;28;19921;-76
2023/03/04 07:15:44;;;;;;;;;;;9.20;57.90;;;;;;5073518;28;19956;-74
2023/03/04 07:18:09;;;;;;;;;;;9.20;57.80;;;;;;5073807;28;19912;-71
2023/03/04 07:20:35;;;;;;;;;;;9.30;57.90;;;;;;5073534;28;19919;-72
2023/03/04 07:23:00;;;;;;;;;;;9.30;57.90;;;;;;5073727;28;19916;-74
2023/03/04 07:25:26;;;;;;;;;;;9.30;57.80;;;;;;5073441;28;20341;-73
2023/03/04 07:27:51;;;;;;;;;;;9.40;57.70;;;;;;5074166;28;19943;-75
2023/03/04 07:30:17;;;;;;;;;;;9.40;57.10;;;;;;5073535;28;19965;-77
2023/03/04 07:32:42;;;;;;;;;;;9.40;57.40;;;;;;5073369;28;20279;-73
2023/03/04 07:35:08;;;;;;;;;;;9.40;57.50;;;;;;5072954;28;19947;-74
2023/03/04 07:37:34;;;;;;;;;;;9.40;57.60;;;;;;5073781;28;20378;-76
2023/03/04 07:39:59;;;;;;;;;;;9.50;57.60;;;;;;5073230;28;20251;-72
2023/03/04 07:42:25;;;;;;;;;;;9.60;57.60;;;;;;5073617;28;19930;-73
2023/03/04 07:44:50;;;;;;;;;;;9.60;57.50;;;;;;5073320;28;19912;-73
2023/03/04 07:47:16;;;;;;;;;;;9.60;57.40;;;;;;5073685;28;19909;-73
2023/03/04 07:49:41;;;;;;;;;;;9.70;57.40;;;;;;5073345;28;19958;-72
2023/03/04 07:52:08;;;;;;;;;;;9.70;57.30;;;;;;5071999;28;19927;-72
2023/03/04 07:54:33;;;;;;;;;;;9.80;57.40;;;;;;5073289;28;20243;-73
2023/03/04 07:56:59;;;;;;;;;;;9.90;57.40;;;;;;5073992;28;19915;-74
2023/03/04 07:59:24;;;;;;;;;;;9.90;57.20;;;;;;5074062;28;19908;-73
2023/03/04 08:01:50;;;;;;;;;;;10.00;57.20;;;;;;5074520;28;19959;-74
2023/03/04 08:04:15;;;;;;;;;;;10.00;57.10;;;;;;5074034;28;19939;-74
2023/03/04 08:06:41;;;;;;;;;;;10.00;57.00;;;;;;5074128;28;19915;-73
2023/03/04 08:09:07;;;;;;;;;;;10.00;56.90;;;;;;5073835;28;19912;-73
2023/03/04 08:11:34;;;;;;;;;;;10.10;57.00;;;;;;5073863;28;19931;-72
2023/03/04 08:14:02;;;;;;;;;;;10.10;56.90;;;;;;5071858;28;20263;-72
2023/03/04 08:16:28;;;;;;;;;;;10.10;56.90;;;;;;5073501;28;20370;-72
2023/03/04 08:18:55;;;;;;;;;;;10.20;56.90;;;;;;5072874;28;19920;-73
2023/03/04 08:21:21;;;;;;;;;;;10.20;56.90;;;;;;5073095;28;20301;-72
2023/03/04 08:23:47;;;;;;;;;;;10.20;56.80;;;;;;5072735;28;20364;-72
2023/03/04 08:26:27;;;;;;;;;;;10.30;56.80;;;;;;5074030;28;19908;-73
2023/03/04 08:28:53;;;;;;;;;;;10.30;56.70;;;;;;5073778;28;19908;-72
2023/03/04 08:31:19;;;;;;;;;;;10.30;56.70;;;;;;5073814;28;19913;-72
2023/03/04 08:33:45;;;;;;;;;;;10.30;56.60;;;;;;5073710;28;19958;-73
2023/03/04 08:36:11;;;;;;;;;;;10.40;56.60;;;;;;5074143;28;20282;-73
2023/03/04 08:38:37;;;;;;;;;;;10.40;56.60;;;;;;5073639;28;20369;-72
2023/03/04 08:41:03;;;;;;;;;;;10.40;56.50;;;;;;5073602;28;19909;-72
2023/03/04 08:43:28;;;;;;;;;;;10.40;56.50;;;;;;5072366;28;20366;-72
2023/03/04 08:45:54;;;;;;;;;;;10.50;56.50;;;;;;5074050;28;19920;-72
2023/03/04 08:48:21;;;;;;;;;;;10.50;56.40;;;;;;5073770;28;19908;-73
2023/03/04 08:50:46;;;;;;;;;;;10.50;56.40;;;;;;5072639;28;20354;-73
2023/03/04 08:53:13;;;;;;;;;;;10.50;56.40;;;;;;5072339;28;19913;-73
2023/03/04 08:55:39;;;;;;;;;;;10.60;56.30;;;;;;5072032;28;19920;-71
2023/03/04 08:58:05;;;;;;;;;;;10.60;56.30;;;;;;5072043;28;19934;-72
2023/03/04 09:00:31;;;;;;;;;;;10.60;56.20;;;;;;5073390;28;19912;-72
2023/03/04 09:02:56;;;;;;;;;;;10.60;56.20;;;;;;5073555;28;19908;-73
2023/03/04 09:05:22;;;;;;;;;;;10.60;56.20;;;;;;5073587;28;19977;-73
2023/03/04 09:07:47;;;;;;;;;;;10.60;56.10;;;;;;5072341;28;19916;-72
2023/03/04 09:10:13;;;;;;;;;;;10.70;56.20;;;;;;5072186;28;20313;-72
2023/03/04 09:12:38;;;;;;;;;;;10.60;56.10;;;;;;5071902;28;19962;-72
2023/03/04 09:15:04;;;;;;;;;;;10.60;56.10;;;;;;5073969;28;19924;-72
2023/03/04 09:17:30;;;;;;;;;;;10.70;56.20;;;;;;5076931;28;19909;-72
2023/03/04 09:19:56;;;;;;;;;;;10.70;56.10;;;;;;5077427;28;19925;-72
2023/03/04 09:22:21;;;;;;;;;;;10.70;56.10;;;;;;5076137;28;20307;-73
2023/03/04 09:24:47;;;;;;;;;;;10.70;56.10;;;;;;5076981;28;20054;-73
2023/03/04 09:27:13;;;;;;;;;;;10.70;56.10;;;;;;5077223;28;20078;-73
2023/03/04 09:29:38;;;;;;;;;;;10.70;56.10;;;;;;5076469;28;19913;-72
2023/03/04 09:32:04;;;;;;;;;;;10.70;56.00;;;;;;5077188;28;19968;-72
2023/03/04 09:34:29;;;;;;;;;;;10.70;56.00;;;;;;5076711;28;19908;-72
2023/03/04 09:36:55;;;;;;;;;;;10.70;56.00;;;;;;5076640;28;19908;-72
2023/03/04 09:39:20;;;;;;;;;;;10.70;56.00;;;;;;5076776;28;20007;-71
2023/03/04 09:41:47;;;;;;;;;;;10.70;56.00;;;;;;5076304;28;19908;-71
2023/03/04 09:44:22;;;;;;;;;;;10.70;56.00;;;;;;5075088;28;20333;-72
2023/03/04 09:46:48;;;;;;;;;;;10.80;56.10;;;;;;5077038;28;19912;-73
2023/03/04 09:49:14;;;;;;;;;;;10.80;56.00;;;;;;5076622;28;19978;-73
2023/03/04 09:51:42;;;;;;;;;;;10.80;56.00;;;;;;5076914;28;19916;-72
2023/03/04 09:54:14;;;;;;;;;;;10.90;56.00;;;;;;5076523;28;19952;-73
2023/03/04 09:56:40;;;;;;;;;;;10.90;55.90;;;;;;5074856;28;20188;-71
2023/03/04 09:59:05;;;;;;;;;;;10.90;55.80;;;;;;5075718;28;19916;-73
2023/03/04 10:01:49;;;;;;;;;;;11.00;55.90;;;;;;5076218;28;19909;-73
2023/03/04 10:04:30;;;;;;;;;;;11.00;55.80;;;;;;5075027;28;19909;-72
2023/03/04 10:06:55;;;;;;;;;;;11.00;55.70;;;;;;5076519;28;20003;-72
2023/03/04 10:09:21;;;;;;;;;;;11.10;55.70;;;;;;5076837;28;20385;-72
2023/03/04 10:11:49;;;;;;;;;;;11.10;55.70;;;;;;5074561;28;19973;-72
2023/03/04 10:14:17;;;;;;;;;;;11.10;55.60;;;;;;5074841;28;19924;-72
2023/03/04 10:16:45;;;;;;;;;;;11.10;55.60;;;;;;5075828;28;19914;-72
2023/03/04 10:19:13;;;;;;;;;;;11.10;55.60;;;;;;5075837;28;19915;-72
2023/03/04 10:21:44;;;;;;;;;;;11.20;55.60;;;;;;5075875;28;19909;-72
2023/03/04 10:24:12;;;;;;;;;;;11.20;55.60;;;;;;5075970;28;19999;-72
2023/03/04 10:26:38;;;;;;;;;;;11.20;55.50;;;;;;5075472;28;20262;-72
2023/03/04 10:29:06;;;;;;;;;;;11.20;55.50;;;;;;5075397;28;20366;-71
2023/03/04 10:31:35;;;;;;;;;;;11.30;55.50;;;;;;5075440;28;19996;-72
2023/03/04 10:34:03;;;;;;;;;;;11.30;55.50;;;;;;5075172;28;19916;-72
2023/03/04 10:36:28;;;;;;;;;;;11.30;55.40;;;;;;5075512;28;19909;-72
2023/03/04 10:38:58;;;;;;;;;;;11.40;55.40;;;;;;5074199;28;19916;-72
2023/03/04 10:41:26;;;;;;;;;;;11.40;55.30;;;;;;5075280;28;19908;-72
2023/03/04 10:44:14;;;;;;;;;;;11.50;55.30;;;;;;5075397;28;19909;-72
2023/03/04 10:46:44;;;;;;;;;;;11.50;55.30;;;;;;5073561;28;19909;-73
2023/03/04 10:49:10;;;;;;;;;;;11.50;55.20;;;;;;5074110;28;19909;-73
2023/03/04 10:51:46;;;;;;;;;;;11.50;55.10;;;;;;5075161;28;19913;-72
2023/03/04 10:54:15;;;;;;;;;;;11.60;55.20;;;;;;5075061;28;19917;-72
2023/03/04 10:56:44;;;;;;;;;;;11.60;55.10;;;;;;5075149;28;19954;-72
2023/03/04 10:59:29;;;;;;;;;;;11.60;55.00;;;;;;5075009;28;20342;-71
2023/03/04 11:01:55;;;;;;;;;;;11.70;55.10;;;;;;5074973;28;19915;-71
2023/03/04 11:04:26;;;;;;;;;;;11.70;55.00;;;;;;5074952;28;20266;-72
2023/03/04 11:06:52;;;;;;;;;;;11.80;55.00;;;;;;5074809;28;20413;-71
2023/03/04 11:09:22;;;;;;;;;;;11.80;54.80;;;;;;5075439;28;19951;-72
2023/03/04 11:11:48;;;;;;;;;;;11.80;54.80;;;;;;5073141;28;19928;-72
2023/03/04 11:14:28;;;;;;;;;;;11.80;54.80;;;;;;5073829;28;20232;-72
2023/03/04 11:16:55;;;;;;;;;;;11.80;54.70;;;;;;5074823;28;19912;-72
2023/03/04 11:19:22;;;;;;;;;;;11.80;54.80;;;;;;5074619;28;19942;-71
2023/03/04 11:21:48;;;;;;;;;;;11.80;54.70;;;;;;5074446;28;20381;-73
2023/03/04 11:24:15;;;;;;;;;;;11.90;55.40;;;;;;5074420;28;19921;-72
2023/03/04 11:26:53;;;;;;;;;;;11.80;54.80;;;;;;5074867;28;19909;-72
2023/03/04 11:29:38;;;;;;;;;;;11.80;54.80;;;;;;5074738;28;19908;-71
2023/03/04 11:32:09;;;;;;;;;;;11.80;54.70;;;;;;5074544;28;19920;-72
2023/03/04 11:34:40;;;;;;;;;;;11.80;54.80;;;;;;5074231;28;19919;-72
2023/03/04 11:37:14;;;;;;;;;;;11.80;54.80;;;;;;5074366;28;19909;-72
2023/03/04 11:39:45;;;;;;;;;;;11.80;54.70;;;;;;5074229;28;20449;-71
2023/03/04 11:42:16;;;;;;;;;;;11.80;54.70;;;;;;5074473;28;19947;-71
2023/03/04 11:44:42;;;;;;;;;;;11.90;54.80;;;;;;5074459;28;19944;-72
2023/03/04 11:47:17;;;;;;;;;;;11.90;54.70;;;;;;5074214;28;20330;-73
2023/03/04 11:49:45;;;;;;;;;;;11.90;54.70;;;;;;5074581;28;19912;-73
2023/03/04 11:52:16;;;;;;;;;;;11.90;54.60;;;;;;5074312;28;19912;-72
2023/03/04 11:54:51;;;;;;;;;;;12.00;54.70;;;;;;5074500;28;20320;-73
2023/03/04 11:57:29;;;;;;;;;;;12.00;54.70;;;;;;5074332;28;19931;-74
2023/03/04 11:59:54;;;;;;;;;;;12.00;54.60;;;;;;5074220;28;19908;-72
2023/03/04 12:02:21;;;;;;;;;;;12.00;54.50;;;;;;5072920;28;19909;-71
2023/03/04 12:04:58;;;;;;;;;;;12.10;54.50;;;;;;5074265;28;19944;-72
2023/03/04 12:07:26;;;;;;;;;;;12.10;54.50;;;;;;5074111;28;19999;-72
2023/03/04 12:09:52;;;;;;;;;;;12.20;54.50;;;;;;5073889;28;19916;-73
2023/03/04 12:12:41;;;;;;;;;;;12.20;54.50;;;;;;5073880;28;20285;-72
2023/03/04 12:15:24;;;;;;;;;;;12.20;54.30;;;;;;5070846;28;19912;-72
2023/03/04 12:18:17;;;;;;;;;;;12.20;54.30;;;;;;5073797;28;19915;-72
2023/03/04 12:20:58;;;;;;;;;;;12.20;54.30;;;;;;5073242;28;20014;-72
2023/03/04 12:23:32;;;;;;;;;;;12.20;54.30;;;;;;5074018;28;19909;-72
2023/03/04 12:25:57;;;;;;;;;;;12.30;54.20;;;;;;5074046;28;19999;-72
2023/03/04 12:28:23;;;;;;;;;;;12.30;54.30;;;;;;5073674;28;19948;-72
2023/03/04 12:31:07;;;;;;;;;;;12.30;54.30;;;;;;5073647;28;19966;-73
2023/03/04 12:33:32;;;;;;;;;;;12.30;54.30;;;;;;5073688;28;19924;-73
2023/03/04 12:36:06;;;;;;;;;;;12.30;54.20;;;;;;5073840;28;19908;-72
2023/03/04 12:38:31;;;;;;;;;;;12.30;54.20;;;;;;5073859;28;19909;-72
2023/03/04 12:41:03;;;;;;;;;;;12.30;54.20;;;;;;5072282;28;20386;-72
2023/03/04 12:43:47;;;;;;;;;;;12.40;54.20;;;;;;5073819;28;19978;-72
2023/03/04 12:46:26;;;;;;;;;;;12.40;54.20;;;;;;5072341;28;19916;-72
2023/03/04 12:49:10;;;;;;;;;;;12.40;54.10;;;;;;5074392;28;19909;-72
2023/03/04 12:51:48;;;;;;;;;;;12.50;54.10;;;;;;5076433;28;19909;-72
2023/03/04 12:54:24;;;;;;;;;;;12.50;54.00;;;;;;5077766;28;20278;-73
2023/03/04 12:57:09;;;;;;;;;;;12.50;53.90;;;;;;5077396;28;20402;-72
2023/03/04 13:00:01;;;;;;;;;;;12.50;53.90;;;;;;5077953;28;19908;-72
2023/03/04 13:02:41;;;;;;;;;;;12.50;54.00;;;;;;5069015;28;19908;-72
2023/03/04 13:05:16;;;;;;;;;;;12.50;53.90;;;;;;5077563;28;19912;-72
2023/03/04 13:07:47;;;;;;;;;;;12.50;54.00;;;;;;5077095;28;20357;-72
2023/03/04 13:10:16;;;;;;;;;;;12.60;54.00;;;;;;5075755;28;20445;-73
2023/03/04 13:13:01;;;;;;;;;;;12.60;54.00;;;;;;5075777;28;19993;-72
2023/03/04 13:15:31;;;;;;;;;;;12.50;54.00;;;;;;5077264;28;19935;-72
2023/03/04 13:17:58;;;;;;;;;;;12.60;53.90;;;;;;5077126;28;20441;-72
2023/03/04 13:20:41;;;;;;;;;;;12.60;53.90;;;;;;5075730;28;20359;-72
2023/03/04 13:23:13;;;;;;;;;;;12.60;53.90;;;;;;5076400;28;19912;-73
2023/03/04 13:25:42;;;;;;;;;;;12.60;53.90;;;;;;5076144;28;19916;-72
2023/03/04 13:28:08;;;;;;;;;;;12.60;53.80;;;;;;5077348;28;19937;-73
2023/03/04 13:30:33;;;;;;;;;;;12.70;53.90;;;;;;5076636;28;20371;-73
2023/03/04 13:33:02;;;;;;;;;;;12.70;53.80;;;;;;5072947;28;19920;-77
2023/03/04 13:35:46;;;;;;;;;;;12.70;53.80;;;;;;5075286;28;19955;-70
2023/03/04 13:38:27;;;;;;;;;;;12.70;53.80;;;;;;5075621;28;19915;-74
2023/03/04 13:40:59;;;;;;;;;;;12.80;53.80;;;;;;5075444;28;20368;-70
2023/03/04 13:43:26;;;;;;;;;;;12.80;53.70;;;;;;5075574;28;19909;-69
2023/03/04 13:45:51;;;;;;;;;;;12.80;54.30;;;;;;5075584;28;19915;-68
2023/03/04 13:48:31;;;;;;;;;;;12.90;53.60;;;;;;5074207;28;19957;-75
2023/03/04 13:50:56;;;;;;;;;;;12.90;53.60;;;;;;5075454;28;19962;-82
2023/03/04 13:53:41;;;;;;;;;;;12.90;53.50;;;;;;5075605;28;19956;-71
2023/03/04 13:56:09;;;;;;;;;;;13.00;53.60;;;;;;5075033;28;19955;-68
2023/03/04 13:58:35;;;;;;;;;;;13.10;53.50;;;;;;5075521;28;19931;-71
2023/03/04 14:01:01;;;;;;;;;;;13.10;53.40;;;;;;5073837;28;19909;-68
2023/03/04 14:03:28;;;;;;;;;;;13.20;53.40;;;;;;5076029;28;19909;-68
2023/03/04 14:06:10;;;;;;;;;;;13.20;53.30;;;;;;5076130;28;19913;-66
2023/03/04 14:08:35;;;;;;;;;;;13.30;53.30;;;;;;5076095;28;20430;-68
2023/03/04 14:11:01;;;;;;;;;;;13.30;53.20;;;;;;5076063;28;19963;-66
2023/03/04 14:13:27;;;;;;;;;;;13.40;53.10;;;;;;5076482;28;20015;-66
2023/03/04 14:15:56;;;;;;;;;;;13.40;53.10;;;;;;5076128;28;20056;-66
2023/03/04 14:18:25;;;;;;;;;;;13.50;53.00;;;;;;5076023;28;20375;-66
2023/03/04 14:20:50;;;;;;;;;;;13.60;53.00;;;;;;5075846;28;19915;-65
2023/03/04 14:23:27;;;;;;;;;;;13.70;52.90;;;;;;5074356;28;19908;-66
2023/03/04 14:26:02;;;;;;;;;;;13.80;52.80;;;;;;5074418;28;19908;-65
2023/03/04 14:28:27;;;;;;;;;;;13.80;52.50;;;;;;5074500;28;19913;-67